Time;durP1;ratioP1;P1;durP2;ratioP2;P2;SDS_P1;SDS_P2;PMS_P1;PMS_P2;Temp;Humidity;BMP_temperature;BMP_pressure;BME280_temperature;BME280_humidity;BME280_pressure;Samples;Min_cycle;Max_cycle;Signal;HPM_P1;HPM_P2
2021/10/25 00:01:04;;;;;;;9.35;3.08;;;22.30;48.70;;;;;;5220473;28;20048;-69
2021/10/25 00:03:37;;;;;;;4.60;3.17;;;22.30;48.70;;;;;;5222018;28;20044;-70
2021/10/25 00:06:10;;;;;;;7.05;2.75;;;22.30;48.50;;;;;;5223943;28;20052;-70
2021/10/25 00:08:42;;;;;;;4.00;3.15;;;22.30;48.50;;;;;;5226197;28;20114;-70
2021/10/25 00:11:14;;;;;;;4.28;2.97;;;22.30;48.50;;;;;;5221966;28;20536;-70
2021/10/25 00:13:47;;;;;;;4.60;2.75;;;22.30;48.40;;;;;;5220767;28;20043;-70
2021/10/25 00:16:19;;;;;;;6.28;3.33;;;22.30;48.40;;;;;;5221902;28;20093;-70
2021/10/25 00:18:52;;;;;;;4.55;2.65;;;22.30;48.40;;;;;;5222345;28;20036;-70
2021/10/25 00:21:25;;;;;;;4.97;3.22;;;22.30;48.40;;;;;;5223997;28;20507;-70
2021/10/25 00:23:57;;;;;;;5.55;3.00;;;22.30;48.30;;;;;;5223147;28;20051;-70
2021/10/25 00:26:30;;;;;;;4.88;2.95;;;22.30;48.30;;;;;;5221624;28;20044;-70
2021/10/25 00:29:03;;;;;;;4.05;2.88;;;22.30;48.40;;;;;;5223392;28;20044;-70
2021/10/25 00:31:36;;;;;;;3.38;2.75;;;22.30;48.30;;;;;;5196436;28;20075;-69
2021/10/25 00:34:09;;;;;;;3.42;2.50;;;22.30;48.30;;;;;;5221166;28;20048;-70
2021/10/25 00:36:41;;;;;;;4.75;3.20;;;22.30;48.30;;;;;;5223087;28;20548;-70
2021/10/25 00:39:14;;;;;;;4.15;3.20;;;22.30;48.30;;;;;;5224132;28;20045;-70
2021/10/25 00:41:46;;;;;;;3.95;2.50;;;22.30;48.40;;;;;;5225571;28;20048;-70
2021/10/25 00:44:20;;;;;;;3.90;2.77;;;22.30;48.20;;;;;;5222789;28;20082;-70
2021/10/25 00:46:52;;;;;;;4.80;2.90;;;22.30;48.20;;;;;;5223496;28;20063;-69
2021/10/25 00:49:25;;;;;;;3.95;2.40;;;22.30;48.30;;;;;;5223672;28;20048;-70
2021/10/25 00:51:57;;;;;;;3.72;2.33;;;22.20;48.20;;;;;;5200967;28;20490;-70
2021/10/25 00:54:34;;;;;;;4.18;2.55;;;22.20;48.20;;;;;;5222817;28;20054;-68
2021/10/25 00:57:06;;;;;;;3.53;2.38;;;22.20;48.20;;;;;;5221739;28;20492;-70
2021/10/25 00:59:40;;;;;;;4.57;2.65;;;22.20;48.10;;;;;;5221112;28;20080;-69
2021/10/25 01:02:12;;;;;;;4.25;2.40;;;22.20;48.20;;;;;;5223440;28;20265;-69
2021/10/25 01:04:45;;;;;;;4.63;3.00;;;22.20;48.10;;;;;;5222613;28;20049;-70
2021/10/25 01:07:18;;;;;;;7.95;3.15;;;22.20;48.20;;;;;;5223423;28;20280;-70
2021/10/25 01:09:50;;;;;;;3.08;2.65;;;22.20;48.10;;;;;;5223214;28;20040;-69
2021/10/25 01:12:23;;;;;;;4.18;2.65;;;22.20;48.10;;;;;;5205468;28;20040;-70
2021/10/25 01:14:56;;;;;;;;;;;22.20;48.10;;;;;;5222572;28;20105;-69
2021/10/25 01:17:28;;;;;;;7.78;2.60;;;22.10;48.00;;;;;;5220101;28;19928;-69
2021/10/25 01:20:02;;;;;;;4.63;2.67;;;22.20;48.10;;;;;;5222574;28;20107;-70
2021/10/25 01:22:37;;;;;;;3.13;2.35;;;22.20;48.10;;;;;;5199675;28;20315;-69
2021/10/25 01:25:09;;;;;;;9.30;2.80;;;22.20;48.50;;;;;;5224151;28;20784;-69
2021/10/25 01:27:42;;;;;;;3.75;2.80;;;22.20;47.90;;;;;;5206662;28;20091;-70
2021/10/25 01:30:16;;;;;;;4.35;2.60;;;22.20;47.80;;;;;;5203252;28;20048;-70
2021/10/25 01:32:50;;;;;;;3.17;2.47;;;22.20;47.90;;;;;;5207036;28;20036;-69
2021/10/25 01:35:24;;;;;;;3.03;2.30;;;22.20;47.80;;;;;;5224898;28;20688;-70
2021/10/25 01:37:58;;;;;;;3.35;2.35;;;22.20;47.80;;;;;;5204693;28;20048;-69
2021/10/25 01:40:31;;;;;;;3.15;2.72;;;22.20;48.40;;;;;;5208134;28;20048;-70
2021/10/25 01:43:05;;;;;;;3.75;2.65;;;22.20;47.70;;;;;;5209805;28;20049;-70
2021/10/25 01:45:38;;;;;;;3.42;2.53;;;22.20;47.70;;;;;;5221608;28;20073;-69
2021/10/25 01:48:10;;;;;;;7.13;2.42;;;22.20;47.80;;;;;;5226397;28;20048;-70
2021/10/25 01:50:43;;;;;;;4.10;2.15;;;22.20;47.70;;;;;;5201309;28;20540;-69
2021/10/25 01:53:15;;;;;;;6.93;2.40;;;22.20;47.60;;;;;;5210033;28;20071;-70
2021/10/25 01:55:56;;;;;;;3.58;2.47;;;22.20;47.70;;;;;;5206278;28;20048;-70
2021/10/25 01:58:29;;;;;;;2.83;2.45;;;22.20;47.60;;;;;;5221844;28;20041;-70
2021/10/25 02:01:07;;;;;;;3.00;2.15;;;22.20;47.60;;;;;;5201770;28;20051;-69
2021/10/25 02:03:40;;;;;;;3.28;2.22;;;22.20;47.50;;;;;;5222159;28;20045;-70
2021/10/25 02:06:23;;;;;;;4.30;2.17;;;22.20;47.50;;;;;;5209431;28;20045;-70
2021/10/25 02:08:55;;;;;;;3.42;2.28;;;22.20;47.50;;;;;;5221257;28;20048;-69
2021/10/25 02:11:29;;;;;;;5.00;2.10;;;22.20;47.50;;;;;;5222065;28;20052;-69
2021/10/25 02:14:03;;;;;;;2.95;2.30;;;22.10;47.50;;;;;;5206251;28;20040;-69
2021/10/25 02:16:36;;;;;;;4.97;2.38;;;22.20;47.40;;;;;;5197676;28;20040;-70
2021/10/25 02:19:09;;;;;;;3.13;1.95;;;22.20;47.50;;;;;;5207571;28;20089;-69
2021/10/25 02:21:46;;;;;;;2.47;2.13;;;22.20;47.40;;;;;;5198749;28;20060;-69
2021/10/25 02:24:19;;;;;;;5.17;2.27;;;22.10;47.30;;;;;;5203461;28;20067;-69
2021/10/25 02:26:51;;;;;;;4.68;2.10;;;22.10;47.20;;;;;;5199493;28;21044;-70
2021/10/25 02:29:23;;;;;;;4.50;2.60;;;22.20;47.40;;;;;;5208729;28;20045;-70
2021/10/25 02:31:56;;;;;;;2.83;2.05;;;22.10;47.30;;;;;;5206469;28;20047;-70
2021/10/25 02:34:30;;;;;;;4.10;2.13;;;22.20;47.40;;;;;;5207174;28;20480;-69
2021/10/25 02:37:03;;;;;;;4.10;2.60;;;22.10;47.30;;;;;;5222970;28;20056;-69
2021/10/25 02:39:36;;;;;;;9.60;2.20;;;22.10;47.30;;;;;;5204869;28;20049;-69
2021/10/25 02:42:08;;;;;;;3.60;2.30;;;22.10;47.40;;;;;;5205476;28;20040;-70
2021/10/25 02:44:43;;;;;;;5.45;2.35;;;22.10;47.30;;;;;;5201359;28;20123;-69
2021/10/25 02:47:19;;;;;;;4.93;1.90;;;22.10;47.20;;;;;;5196366;28;20040;-69
2021/10/25 02:49:52;;;;;;;5.40;2.45;;;22.10;47.30;;;;;;5202863;28;20036;-69
2021/10/25 02:52:26;;;;;;;4.43;2.00;;;22.10;47.50;;;;;;5222227;28;20044;-69
2021/10/25 02:54:59;;;;;;;8.98;2.50;;;22.10;47.60;;;;;;5224541;28;20051;-69
2021/10/25 02:57:32;;;;;;;4.20;2.15;;;22.10;47.70;;;;;;5199105;28;20043;-69
2021/10/25 03:00:07;;;;;;;3.13;1.92;;;22.20;47.90;;;;;;5198712;28;20037;-69
2021/10/25 03:02:44;;;;;;;3.17;2.10;;;22.20;48.10;;;;;;5217467;28;20052;-69
2021/10/25 03:05:19;;;;;;;4.00;2.10;;;22.20;48.10;;;;;;5207324;28;20045;-69
2021/10/25 03:07:52;;;;;;;8.20;2.20;;;22.20;48.20;;;;;;5202093;28;20049;-70
2021/10/25 03:10:24;;;;;;;2.70;1.98;;;22.20;48.30;;;;;;5222863;28;20310;-68
2021/10/25 03:12:57;;;;;;;5.10;2.23;;;22.20;48.40;;;;;;5197431;28;20047;-71
2021/10/25 03:15:29;;;;;;;4.57;2.05;;;22.20;48.60;;;;;;5203924;28;20302;-70
2021/10/25 03:18:13;;;;;;;6.63;2.28;;;22.20;48.60;;;;;;5220490;28;20063;-69
2021/10/25 03:20:46;;;;;;;6.28;2.38;;;22.20;48.70;;;;;;5218420;28;20044;-69
2021/10/25 03:23:19;;;;;;;4.20;2.65;;;22.20;48.80;;;;;;5219120;28;20413;-69
2021/10/25 03:25:51;;;;;;;3.55;2.25;;;22.20;48.80;;;;;;5201303;28;20482;-69
2021/10/25 03:28:24;;;;;;;3.50;2.03;;;22.20;48.90;;;;;;5206077;28;20052;-69
2021/10/25 03:30:57;;;;;;;10.88;3.25;;;22.20;48.90;;;;;;5205052;28;20041;-69
2021/10/25 03:33:31;;;;;;;4.07;2.28;;;22.20;49.00;;;;;;5223012;28;20828;-69
2021/10/25 03:36:10;;;;;;;4.35;2.05;;;22.20;49.10;;;;;;5203816;28;20516;-69
2021/10/25 03:38:43;;;;;;;8.20;2.28;;;22.20;49.10;;;;;;5215546;28;20040;-69
2021/10/25 03:41:20;;;;;;;4.75;2.45;;;22.20;49.20;;;;;;5217313;28;20048;-69
2021/10/25 03:44:01;;;;;;;3.40;2.05;;;22.20;49.30;;;;;;5209246;28;20053;-69
2021/10/25 03:46:41;;;;;;;3.15;2.03;;;22.20;49.30;;;;;;5208654;28;20060;-69
2021/10/25 03:52:35;;;;;;;3.10;2.05;;;22.20;49.50;;;;;;5210571;28;20056;-71
2021/10/25 03:55:20;;;;;;;5.32;1.90;;;22.20;49.50;;;;;;5199078;28;20054;-70
2021/10/25 04:00:57;;;;;;;4.03;1.92;;;22.30;49.70;;;;;;5208089;28;20044;-70
2021/10/25 04:04:03;;;;;;;3.85;1.58;;;22.20;49.60;;;;;;5211211;28;20048;-69
2021/10/25 04:13:03;;;;;;;2.65;1.45;;;22.20;49.80;;;;;;5215301;28;20063;-70
2021/10/25 04:27:43;;;;;;;4.25;1.95;;;22.20;50.40;;;;;;5176884;28;20040;-70
2021/10/25 04:30:18;;;;;;;8.32;2.00;;;22.20;50.40;;;;;;5190363;28;20048;-70
2021/10/25 04:32:50;;;;;;;4.55;2.10;;;22.20;50.50;;;;;;5192561;28;20039;-71
2021/10/25 04:35:42;;;;;;;5.15;2.28;;;22.30;50.60;;;;;;5208517;28;20044;-70
2021/10/25 04:38:39;;;;;;;4.05;1.90;;;22.20;50.50;;;;;;5206223;28;21063;-70
2021/10/25 04:41:11;;;;;;;10.95;2.35;;;22.30;50.50;;;;;;5203193;28;20056;-70
2021/10/25 04:43:45;;;;;;;16.38;2.67;;;22.30;50.60;;;;;;5198234;28;20044;-70
2021/10/25 04:46:17;;;;;;;12.57;2.30;;;22.30;50.60;;;;;;5194586;28;20052;-70
2021/10/25 04:48:49;;;;;;;10.48;2.60;;;22.30;50.60;;;;;;5195965;28;20059;-70
2021/10/25 04:51:34;;;;;;;5.30;1.85;;;22.40;50.60;;;;;;5188772;28;20044;-70
2021/10/25 04:54:24;;;;;;;6.30;2.05;;;22.40;50.60;;;;;;5208077;28;20040;-70
2021/10/25 04:56:59;;;;;;;11.23;2.58;;;22.40;50.60;;;;;;5202659;28;20056;-69
2021/10/25 04:59:31;;;;;;;7.28;2.47;;;22.40;50.80;;;;;;5208911;28;20051;-70
2021/10/25 05:02:04;;;;;;;11.13;2.97;;;22.40;50.80;;;;;;5202067;28;20056;-70
2021/10/25 05:04:37;;;;;;;12.90;2.60;;;22.40;50.80;;;;;;5189233;28;20071;-69
2021/10/25 05:07:10;;;;;;;11.70;2.80;;;22.40;50.80;;;;;;5205654;28;20048;-69
2021/10/25 05:09:42;;;;;;;23.75;3.03;;;22.40;50.70;;;;;;5207420;28;20095;-69
2021/10/25 05:12:14;;;;;;;8.45;2.75;;;22.40;50.60;;;;;;5207127;28;20045;-69
2021/10/25 05:14:47;;;;;;;9.65;2.65;;;22.50;50.40;;;;;;5213464;28;20047;-69
2021/10/25 05:17:19;;;;;;;9.88;2.70;;;22.40;50.20;;;;;;5207720;28;20036;-69
2021/10/25 05:19:57;;;;;;;11.20;2.47;;;22.40;50.00;;;;;;5185191;28;20048;-69
2021/10/25 05:22:36;;;;;;;10.57;2.78;;;22.50;49.90;;;;;;5207942;28;20052;-69
2021/10/25 05:25:12;;;;;;;12.82;2.00;;;22.40;49.80;;;;;;5211807;28;20058;-69
2021/10/25 05:27:45;;;;;;;8.52;2.42;;;22.40;49.60;;;;;;5208158;28;20409;-69
2021/10/25 05:30:17;;;;;;;9.10;2.30;;;22.40;49.50;;;;;;5192450;28;20052;-69
2021/10/25 05:32:52;;;;;;;7.38;2.00;;;22.40;49.40;;;;;;5200331;28;20097;-68
2021/10/25 05:35:25;;;;;;;8.90;2.40;;;22.40;49.30;;;;;;5201721;28;20041;-69
2021/10/25 05:37:57;;;;;;;8.70;2.10;;;22.40;49.20;;;;;;5187760;28;20496;-69
2021/10/25 05:40:30;;;;;;;5.60;2.20;;;22.40;49.70;;;;;;5200527;28;20045;-70
2021/10/25 05:43:07;;;;;;;5.55;1.80;;;22.40;49.00;;;;;;5193724;28;20520;-69
2021/10/25 05:45:39;;;;;;;;;;;22.40;48.90;;;;;;5215541;28;20056;-69
2021/10/25 05:48:12;;;;;;;5.63;2.05;;;22.40;48.90;;;;;;5200700;28;19924;-69
2021/10/25 05:50:45;;;;;;;6.25;2.20;;;22.40;48.90;;;;;;5197268;28;20059;-70
2021/10/25 05:53:18;;;;;;;8.68;1.92;;;22.40;48.80;;;;;;5197398;28;20048;-69
2021/10/25 05:55:51;;;;;;;8.00;1.90;;;22.40;48.70;;;;;;5199015;28;20044;-69
2021/10/25 05:58:23;;;;;;;4.77;1.97;;;22.40;48.70;;;;;;5190447;28;20063;-70
2021/10/25 06:00:59;;;;;;;3.05;1.60;;;22.40;48.60;;;;;;5220578;28;20041;-69
2021/10/25 06:03:47;;;;;;;3.45;1.77;;;22.40;48.50;;;;;;5205605;28;20044;-69
2021/10/25 06:06:19;;;;;;;3.63;1.58;;;22.40;48.50;;;;;;5224709;28;20041;-70
2021/10/25 06:08:51;;;;;;;4.38;2.03;;;22.40;48.40;;;;;;5199354;28;20387;-69
2021/10/25 06:11:25;;;;;;;2.85;1.90;;;22.40;48.40;;;;;;5204253;28;20048;-70
2021/10/25 06:14:01;;;;;;;5.25;1.60;;;22.40;48.30;;;;;;5203972;28;20049;-70
2021/10/25 06:16:41;;;;;;;4.20;1.83;;;22.40;48.30;;;;;;5206948;28;20695;-68
2021/10/25 06:19:17;;;;;;;6.07;1.73;;;22.40;48.30;;;;;;5199523;28;20044;-69
2021/10/25 06:21:49;;;;;;;2.97;1.55;;;22.40;48.20;;;;;;5190579;28;20048;-69
2021/10/25 06:24:27;;;;;;;3.03;1.85;;;22.40;48.80;;;;;;5223942;28;20067;-69
2021/10/25 06:27:13;;;;;;;4.70;1.55;;;22.40;48.10;;;;;;5198088;28;20036;-69
2021/10/25 06:29:47;;;;;;;5.00;1.30;;;22.40;48.10;;;;;;5204225;28;20048;-69
2021/10/25 06:32:19;;;;;;;2.80;1.77;;;22.40;48.10;;;;;;5206863;28;20039;-69
2021/10/25 06:34:52;;;;;;;2.90;1.60;;;22.40;48.10;;;;;;5203840;28;20374;-69
2021/10/25 06:40:26;;;;;;;3.17;1.65;;;22.40;47.90;;;;;;5219289;28;21390;-69
2021/10/25 06:42:58;;;;;;;4.05;1.50;;;22.40;48.00;;;;;;5224176;28;20526;-69
2021/10/25 06:45:32;;;;;;;;;;;22.40;48.00;;;;;;5203037;28;20524;-69
2021/10/25 06:48:04;;;;;;;2.83;1.80;;;22.30;47.90;;;;;;5217269;28;19924;-69
2021/10/25 06:50:39;;;;;;;6.40;1.98;;;22.40;48.00;;;;;;5223652;28;20052;-69
2021/10/25 06:53:14;;;;;;;2.92;1.70;;;22.40;48.00;;;;;;5199505;28;20048;-70
2021/10/25 06:56:22;;;;;;;4.40;1.95;;;22.40;47.90;;;;;;5213422;28;20053;-70
2021/10/25 06:58:54;;;;;;;4.55;1.55;;;22.40;48.00;;;;;;5204317;28;20048;-69
2021/10/25 07:01:27;;;;;;;2.58;1.63;;;22.40;47.90;;;;;;5214461;28;20041;-69
2021/10/25 07:04:01;;;;;;;;;;;22.40;48.00;;;;;;5221114;28;20200;-69
2021/10/25 07:06:38;;;;;;;7.35;2.10;;;22.40;47.90;;;;;;5218800;28;19947;-69
2021/10/25 07:09:11;;;;;;;2.95;1.80;;;22.40;47.90;;;;;;5214784;28;20060;-68
2021/10/25 07:11:45;;;;;;;4.22;1.80;;;22.40;47.90;;;;;;5201383;28;20043;-69
2021/10/25 07:14:25;;;;;;;4.30;1.80;;;22.40;47.80;;;;;;5212260;28;20059;-69
2021/10/25 08:03:33;;;;;;;7.20;2.35;;;22.50;48.00;;;;;;5222568;28;20055;-70
2021/10/25 08:06:28;;;;;;;5.13;2.40;;;22.50;48.00;;;;;;5214662;28;20040;-70
2021/10/25 08:09:39;;;;;;;5.28;2.30;;;22.50;48.00;;;;;;5207511;28;20041;-70
2021/10/25 08:12:03;;;;;;;5.00;2.40;;;22.40;48.00;;;;;;5198959;28;20051;-69
2021/10/25 08:14:38;;;;;;;5.22;2.30;;;22.40;48.10;;;;;;5214216;28;20044;-69
2021/10/25 08:17:17;;;;;;;5.00;2.22;;;22.50;48.10;;;;;;5213007;28;20033;-69
2021/10/25 08:19:52;;;;;;;4.00;2.28;;;22.50;48.10;;;;;;5202940;28;20048;-69
2021/10/25 08:22:25;;;;;;;5.53;2.60;;;22.50;48.10;;;;;;5200961;28;20512;-69
2021/10/25 08:24:57;;;;;;;2.55;1.90;;;22.40;48.10;;;;;;5198861;28;20051;-69
2021/10/25 08:27:37;;;;;;;3.50;2.30;;;22.50;48.10;;;;;;5204676;28;20064;-69
2021/10/25 08:30:12;;;;;;;5.60;2.03;;;22.50;48.20;;;;;;5223119;28;20665;-69
2021/10/25 08:33:08;;;;;;;4.28;2.08;;;22.50;48.20;;;;;;5203791;28;20079;-69
2021/10/25 08:35:55;;;;;;;5.35;1.90;;;22.50;48.20;;;;;;5201737;28;20044;-69
2021/10/25 08:41:47;;;;;;;5.65;2.10;;;22.50;48.20;;;;;;5220691;28;20049;-70
2021/10/25 08:44:21;;;;;;;5.03;1.92;;;22.50;48.20;;;;;;5186257;28;20045;-69
2021/10/25 08:46:58;;;;;;;3.63;2.13;;;22.50;48.30;;;;;;5215046;28;20044;-69
2021/10/25 08:49:31;;;;;;;8.15;2.58;;;22.40;48.20;;;;;;5212358;28;20045;-69
2021/10/25 08:52:03;;;;;;;5.60;2.25;;;22.50;48.30;;;;;;5219520;28;20048;-69
2021/10/25 08:54:41;;;;;;;5.30;2.20;;;22.50;48.30;;;;;;5218732;28;20067;-69
2021/10/25 08:57:14;;;;;;;5.15;2.20;;;22.50;48.30;;;;;;5229795;28;20044;-69
2021/10/25 08:59:55;;;;;;;3.38;2.00;;;22.50;48.30;;;;;;5207872;28;20045;-69
2021/10/25 09:02:30;;;;;;;6.70;2.47;;;22.50;48.30;;;;;;5225778;28;20053;-69
2021/10/25 09:05:21;;;;;;;2.90;2.22;;;22.50;48.30;;;;;;5223747;28;20036;-70
2021/10/25 09:08:03;;;;;;;4.88;2.53;;;22.50;48.30;;;;;;5202870;28;20048;-69
2021/10/25 09:10:45;;;;;;;5.18;2.60;;;22.50;48.30;;;;;;5206710;28;20051;-69
2021/10/25 09:13:23;;;;;;;5.70;2.30;;;22.50;48.40;;;;;;5228092;28;20153;-69
2021/10/25 09:16:03;;;;;;;5.05;2.08;;;22.50;49.00;;;;;;5221499;28;20043;-69
2021/10/25 09:19:16;;;;;;;3.45;1.75;;;22.50;48.40;;;;;;5176342;28;20146;-70
2021/10/25 09:21:51;;;;;;;5.20;2.10;;;22.50;48.50;;;;;;5214036;28;20052;-69
2021/10/25 09:24:25;;;;;;;6.85;2.28;;;22.50;48.40;;;;;;5221779;28;20041;-69
2021/10/25 09:27:04;;;;;;;3.33;2.05;;;22.50;48.40;;;;;;5200258;28;20060;-69
2021/10/25 09:29:39;;;;;;;5.00;2.20;;;22.50;48.40;;;;;;5198225;28;20840;-69
2021/10/25 09:32:14;;;;;;;8.15;2.40;;;22.50;48.50;;;;;;5220872;28;20048;-70
2021/10/25 09:35:25;;;;;;;4.05;2.20;;;22.60;48.50;;;;;;5219234;28;20044;-69
2021/10/25 09:38:35;;;;;;;4.63;2.08;;;22.50;48.40;;;;;;5201446;28;20378;-68
2021/10/25 09:49:46;;;;;;;4.95;2.20;;;22.50;48.50;;;;;;5214968;28;20044;-70
2021/10/25 09:52:29;;;;;;;3.50;2.10;;;22.50;48.50;;;;;;5222890;28;20520;-69
2021/10/25 09:55:12;;;;;;;4.32;2.00;;;22.50;48.60;;;;;;5213064;28;20048;-69
2021/10/25 10:00:27;;;;;;;4.55;1.90;;;22.50;48.60;;;;;;5217381;28;20047;-69
2021/10/25 10:03:01;;;;;;;3.92;2.10;;;22.60;48.70;;;;;;5187469;28;20616;-69
2021/10/25 10:05:59;;;;;;;7.90;2.38;;;22.60;48.70;;;;;;5211758;28;20341;-69
2021/10/25 10:08:43;;;;;;;3.83;2.10;;;22.60;48.70;;;;;;5184322;28;20053;-69
2021/10/25 10:11:22;;;;;;;4.55;2.75;;;22.60;48.70;;;;;;5204676;28;20049;-70
2021/10/25 10:13:56;;;;;;;4.40;2.67;;;22.50;48.70;;;;;;5220542;28;20040;-70
2021/10/25 10:16:37;;;;;;;4.65;2.08;;;22.60;48.70;;;;;;5207675;28;20922;-70
2021/10/25 10:19:13;;;;;;;2.33;1.73;;;22.60;48.70;;;;;;5196960;28;20048;-70
2021/10/25 10:22:07;;;;;;;5.95;1.95;;;22.60;48.70;;;;;;5206494;28;20066;-70
2021/10/25 10:24:59;;;;;;;5.07;2.13;;;22.60;48.70;;;;;;5224350;28;20060;-70
2021/10/25 10:27:31;;;;;;;3.38;2.10;;;22.50;48.70;;;;;;5218137;28;20041;-69
2021/10/25 10:30:10;;;;;;;5.85;2.45;;;22.60;48.80;;;;;;5202213;28;20794;-70
2021/10/25 10:33:01;;;;;;;3.72;2.10;;;22.60;48.80;;;;;;5199161;28;20527;-70
2021/10/25 10:35:48;;;;;;;3.78;2.10;;;22.60;48.80;;;;;;5218473;28;20049;-70
2021/10/25 10:38:48;;;;;;;4.70;2.10;;;22.60;48.80;;;;;;5220991;28;20056;-69
2021/10/25 10:41:45;;;;;;;3.28;1.80;;;22.60;48.80;;;;;;5218023;28;20056;-70
2021/10/25 10:44:33;;;;;;;3.78;2.00;;;22.60;48.80;;;;;;5196788;28;20052;-70
2021/10/25 10:47:12;;;;;;;;;;;22.60;48.80;;;;;;5211195;28;20063;-70
2021/10/25 10:49:54;;;;;;;3.65;2.13;;;22.60;48.90;;;;;;5220123;28;19939;-70
2021/10/25 10:55:19;;;;;;;4.20;1.95;;;22.60;48.90;;;;;;5218652;28;20055;-69
2021/10/25 11:00:48;;;;;;;2.30;1.60;;;22.60;49.00;;;;;;5223876;28;20045;-69
2021/10/25 11:03:27;;;;;;;2.50;1.92;;;22.60;48.90;;;;;;5223265;28;20051;-69
2021/10/25 11:06:00;;;;;;;3.15;1.80;;;22.60;49.00;;;;;;5222303;28;20052;-70
2021/10/25 11:08:35;;;;;;;3.22;1.90;;;22.70;49.00;;;;;;5223908;28;20479;-69
2021/10/25 11:11:13;;;;;;;2.47;1.85;;;22.70;48.90;;;;;;5215725;28;20258;-70
2021/10/25 11:14:05;;;;;;;4.93;2.05;;;22.70;48.90;;;;;;5187770;28;20048;-70
2021/10/25 11:17:08;;;;;;;3.50;2.10;;;22.70;48.90;;;;;;5207128;28;20049;-69
2021/10/25 11:19:45;;;;;;;5.03;2.22;;;22.70;49.10;;;;;;5217747;28;20056;-70
2021/10/25 11:22:32;;;;;;;3.80;2.17;;;22.70;49.10;;;;;;5214322;28;20067;-69
2021/10/25 11:25:07;;;;;;;3.08;1.90;;;22.70;49.00;;;;;;5207754;28;20058;-70
2021/10/25 11:27:40;;;;;;;11.48;2.65;;;22.70;48.90;;;;;;5196353;28;20067;-72
2021/10/25 11:30:18;;;;;;;7.10;2.00;;;22.80;49.00;;;;;;5219275;28;20537;-72
2021/10/25 11:32:51;;;;;;;3.08;2.13;;;22.80;49.00;;;;;;5192955;28;20465;-73
2021/10/25 11:35:23;;;;;;;4.88;2.72;;;22.80;49.20;;;;;;5222840;28;20774;-73
2021/10/25 11:38:01;;;;;;;2.67;1.73;;;22.80;49.30;;;;;;5210800;28;20059;-71
2021/10/25 11:40:34;;;;;;;4.97;2.00;;;22.80;49.40;;;;;;5219996;28;20052;-72
2021/10/25 11:43:06;;;;;;;5.40;2.40;;;22.80;49.60;;;;;;5218026;28;20412;-71
2021/10/25 11:45:39;;;;;;;4.18;1.80;;;22.80;49.70;;;;;;5222791;28;20063;-70
2021/10/25 11:48:12;;;;;;;13.88;2.05;;;22.80;49.90;;;;;;5205182;28;20075;-70
2021/10/25 11:50:44;;;;;;;6.05;2.22;;;22.80;50.00;;;;;;5209707;28;20052;-70
2021/10/25 11:53:17;;;;;;;5.53;2.15;;;22.80;50.10;;;;;;5213234;28;20052;-70
2021/10/25 11:55:49;;;;;;;6.75;2.13;;;22.80;50.20;;;;;;5211246;28;20787;-70
2021/10/25 11:58:25;;;;;;;5.57;1.90;;;22.80;50.30;;;;;;5212144;28;20063;-70
2021/10/25 12:01:02;;;;;;;8.20;2.13;;;22.90;50.30;;;;;;5211076;28;20045;-72
2021/10/25 12:03:42;;;;;;;5.68;2.20;;;22.80;50.40;;;;;;5200992;28;20044;-72
2021/10/25 12:06:21;;;;;;;4.25;2.33;;;22.80;50.50;;;;;;5214228;28;20044;-73
2021/10/25 12:09:08;;;;;;;4.28;2.15;;;22.80;50.60;;;;;;5221516;28;20052;-72
2021/10/25 12:11:49;;;;;;;3.80;1.80;;;22.80;50.70;;;;;;5216611;28;20044;-72
2021/10/25 12:14:32;;;;;;;6.07;2.13;;;22.90;50.80;;;;;;5216882;28;20048;-73
2021/10/25 12:17:06;;;;;;;4.15;1.75;;;22.80;50.80;;;;;;5173291;28;20612;-75
2021/10/25 12:19:42;;;;;;;8.70;2.17;;;22.90;50.90;;;;;;5210383;28;20044;-72
2021/10/25 12:22:19;;;;;;;4.18;1.75;;;22.90;50.90;;;;;;5207813;28;20095;-70
2021/10/25 12:24:54;;;;;;;6.57;2.30;;;22.90;51.00;;;;;;5205490;28;20558;-71
2021/10/25 12:27:36;;;;;;;4.57;1.60;;;22.80;51.00;;;;;;5198691;28;20052;-71
2021/10/25 12:30:15;;;;;;;6.18;2.13;;;22.90;51.20;;;;;;5174342;28;20496;-71
2021/10/25 12:33:00;;;;;;;7.03;2.20;;;22.80;51.00;;;;;;5201975;28;20048;-74
2021/10/25 12:35:37;;;;;;;30.02;2.58;;;22.80;51.30;;;;;;5209495;28;20044;-73
2021/10/25 12:38:15;;;;;;;7.00;2.35;;;22.80;50.60;;;;;;5211182;28;20036;-72
2021/10/25 12:41:00;;;;;;;8.35;2.50;;;22.80;50.50;;;;;;5217273;28;20687;-71
2021/10/25 12:43:41;;;;;;;7.80;2.58;;;22.80;50.50;;;;;;5208594;28;20052;-72
2021/10/25 12:46:17;;;;;;;5.93;2.00;;;22.80;50.70;;;;;;5211916;28;20067;-71
2021/10/25 12:48:55;;;;;;;3.75;2.10;;;22.80;50.70;;;;;;5218478;28;20082;-71
2021/10/25 12:51:41;;;;;;;5.80;2.15;;;22.80;50.50;;;;;;5222706;28;20060;-71
2021/10/25 12:54:14;;;;;;;6.63;2.00;;;22.80;50.40;;;;;;5222696;28;20537;-71
2021/10/25 12:56:46;;;;;;;;;;;22.80;50.40;;;;;;5196053;28;20049;-72
2021/10/25 12:59:20;;;;;;;4.43;2.65;;;22.70;50.50;;;;;;5209507;28;19947;-73
2021/10/25 13:01:54;;;;;;;3.13;2.00;;;22.70;50.60;;;;;;5205083;28;20389;-71
2021/10/25 13:04:30;;;;;;;11.43;2.15;;;22.70;50.80;;;;;;5204698;28;20045;-71
2021/10/25 13:07:19;;;;;;;5.25;1.92;;;22.70;50.90;;;;;;5203814;28;20036;-70
2021/10/25 13:09:52;;;;;;;5.25;2.00;;;22.80;51.00;;;;;;5208482;28;20428;-70
2021/10/25 13:12:25;;;;;;;4.50;2.15;;;22.80;51.40;;;;;;5212500;28;20048;-72
2021/10/25 13:14:58;;;;;;;5.80;1.80;;;22.70;51.10;;;;;;5195926;28;20048;-73
2021/10/25 13:17:43;;;;;;;8.10;2.30;;;22.70;51.20;;;;;;5209206;28;20049;-73
2021/10/25 13:20:18;;;;;;;4.22;2.05;;;22.80;51.40;;;;;;5183626;28;20045;-73
2021/10/25 13:22:53;;;;;;;5.80;1.50;;;22.70;51.40;;;;;;5205023;28;20060;-73
2021/10/25 13:25:28;;;;;;;8.77;2.53;;;22.80;51.50;;;;;;5203821;28;20041;-71
2021/10/25 13:28:02;;;;;;;6.10;2.33;;;22.70;51.60;;;;;;5207678;28;20055;-72
2021/10/25 13:30:36;;;;;;;7.40;2.35;;;22.70;51.60;;;;;;5200921;28;20065;-73
2021/10/25 13:33:08;;;;;;;;;;;22.70;51.70;;;;;;5205790;28;20032;-75
2021/10/25 13:35:41;;;;;;;10.63;1.80;;;22.70;51.80;;;;;;5191118;28;19929;-74
2021/10/25 13:38:13;;;;;;;5.30;2.15;;;22.80;51.80;;;;;;5212334;28;20546;-74
2021/10/25 13:40:46;;;;;;;6.90;1.92;;;22.70;51.80;;;;;;5205850;28;20067;-72
2021/10/25 13:43:35;;;;;;;4.35;1.85;;;22.70;51.80;;;;;;5212843;28;20476;-71
2021/10/25 13:46:08;;;;;;;5.53;2.20;;;22.70;51.90;;;;;;5205798;28;20653;-72
2021/10/25 13:48:40;;;;;;;2.33;1.67;;;22.70;52.00;;;;;;5204640;28;20051;-71
2021/10/25 13:51:13;;;;;;;4.38;2.20;;;22.80;52.10;;;;;;5203753;28;20059;-72
2021/10/25 13:53:45;;;;;;;6.60;1.90;;;22.70;52.10;;;;;;5208188;28;20044;-71
2021/10/25 13:56:18;;;;;;;5.10;1.88;;;22.70;52.10;;;;;;5200006;28;20047;-72
2021/10/25 13:58:53;;;;;;;6.05;1.90;;;22.80;52.20;;;;;;5198812;28;20055;-74
2021/10/25 14:01:26;;;;;;;5.88;2.00;;;22.70;52.20;;;;;;5210537;28;20055;-72
2021/10/25 14:03:59;;;;;;;7.55;2.08;;;22.70;52.20;;;;;;5202864;28;20086;-72
2021/10/25 14:06:33;;;;;;;4.63;2.05;;;22.80;52.40;;;;;;5217108;28;20057;-73
2021/10/25 14:09:05;;;;;;;6.20;1.77;;;22.80;52.40;;;;;;5207062;28;20060;-73
2021/10/25 14:11:44;;;;;;;5.03;1.75;;;22.70;52.40;;;;;;5212284;28;20059;-73
2021/10/25 14:16:52;;;;;;;6.63;1.98;;;22.80;52.50;;;;;;5213690;28;20040;-72
2021/10/25 14:19:28;;;;;;;3.42;1.50;;;22.70;52.60;;;;;;5211319;28;20567;-71
2021/10/25 14:22:00;;;;;;;3.75;1.98;;;22.70;52.60;;;;;;5207481;28;20045;-70
2021/10/25 14:24:34;;;;;;;6.00;1.83;;;22.80;52.60;;;;;;5204181;28;20056;-70
2021/10/25 14:27:07;;;;;;;4.55;1.80;;;22.80;52.50;;;;;;5192327;28;20056;-70
2021/10/25 14:29:39;;;;;;;2.20;1.55;;;22.80;52.20;;;;;;5212527;28;20053;-70
2021/10/25 14:32:11;;;;;;;7.60;2.33;;;22.70;51.90;;;;;;5206047;28;20075;-70
2021/10/25 14:34:44;;;;;;;6.95;2.30;;;22.70;51.50;;;;;;5185599;28;20936;-70
2021/10/25 14:37:16;;;;;;;6.05;3.03;;;22.70;51.30;;;;;;5200114;28;20054;-70
2021/10/25 14:39:49;;;;;;;9.07;3.80;;;22.70;51.20;;;;;;5197250;28;25440;-70
2021/10/25 14:42:32;;;;;;;9.93;4.78;;;22.70;51.00;;;;;;5180761;28;20059;-70
2021/10/25 14:58:28;;;;;;;11.38;5.97;;;22.60;50.60;;;;;;5220514;28;20576;-71
2021/10/25 15:01:01;;;;;;;12.60;6.22;;;22.60;50.60;;;;;;5223255;28;20045;-70
2021/10/25 15:03:34;;;;;;;12.45;6.03;;;22.50;50.60;;;;;;5205386;28;20044;-69
2021/10/25 15:06:08;;;;;;;13.10;6.68;;;22.50;50.70;;;;;;5219684;28;20048;-70
2021/10/25 15:08:41;;;;;;;11.80;6.28;;;22.50;50.70;;;;;;5220493;28;20056;-71
2021/10/25 15:11:13;;;;;;;10.35;6.22;;;22.50;50.60;;;;;;5225033;28;20048;-69
2021/10/25 15:13:46;;;;;;;9.98;5.53;;;22.50;50.60;;;;;;5206577;28;20058;-70
2021/10/25 15:16:18;;;;;;;11.80;6.20;;;22.50;50.70;;;;;;5213775;28;20060;-70
2021/10/25 15:18:51;;;;;;;9.90;5.97;;;22.40;50.60;;;;;;5216009;28;20045;-70
2021/10/25 15:21:23;;;;;;;10.85;5.18;;;22.50;50.70;;;;;;5222150;28;20051;-70
2021/10/25 15:23:56;;;;;;;7.97;4.90;;;22.40;50.60;;;;;;5204335;28;20056;-69
2021/10/25 15:26:30;;;;;;;12.70;5.00;;;22.40;50.70;;;;;;5223381;28;20040;-70